Startpagina
METAR-TAF:

METAR-TAF

Vliegvelden :

Hayden, Colorado, Verenigde Staten

breedte: 40-29N, lengte: 107-13W, hoogte: 2012 m

Actueel weer

Dit bericht is 54 minuten geleden gemaakt, om 03:56 UTC
Weinig wind
Temperatuur 5°C
Vochtigheid 60%
Druk 1032 hPa
Zicht: 16.1 km
Onbewolkt

METAR: KHDN 200356Z AUTO 00000KT 10SM CLR 05/M02 A3047 RMK AO2 SLP313 T00501017

Tijdstip: 22:50 (04:50 UTC)

Verwachting

Dit bericht is 5 uur en het 14 minuten geleden gemaakt, om 23:36 UTC
Verwachting geldig van 20 om 00 UTC tot 20 om 24 UTC
Wind 8 kt uit het westen
Zicht: 10 km
Weinig wolken op 9000 ft
Weinig wolken op 25000 ft
Van 20 om 0400 UTC
Wind 8 kt uit het oostzuidoosten
Zicht: 10 km
Onbewolkt
Van 20 om 1800 UTC
Wind 6 kt uit het westen
Zicht: 10 km
Onbewolkt

TAF: KHDN 192336Z 2000/2024 28008KT P6SM FEW090 FEW250 FM200400 11008KT P6SM SKC FM201800 28006KT P6SM SKC

Waarnemingen en weersverwachtingen van meer dan 4000 vliegvelden (METAR en TAF).

De beschikbare stations zijn de gele en rode punten op de kaart.

Ga met uw muis naar het station om de naam te zien.

Klik dan om waarnemingen en weersverwachtingen te zien.

kaart wijzigen: klik op de groene knoppen met een zwart kruis om in te zoomen, op de groene knop met een streepje om uit te zoomen of op de groene pijlen voor aangrenzende kaarten.


METAR-TAF: